EDT,Max TemperatureF,Mean TemperatureF,Min TemperatureF,Max Dew PointF,MeanDew PointF,Min DewpointF,Max Humidity, Mean Humidity, Min Humidity, Max Sea Level PressureIn, Mean Sea Level PressureIn, Min Sea Level PressureIn, Max VisibilityMiles, Mean VisibilityMiles, Min VisibilityMiles, Max Wind SpeedMPH, Mean Wind SpeedMPH, Max Gust SpeedMPH,PrecipitationIn, CloudCover, Events, WindDirDegrees
2011-10-1,87,76,64,70,56,48,100,54,29,29.93,29.87,29.81,10,10,5,12,4,17,0.00,6,,345
2011-10-2,84,70,57,55,50,45,73,47,26,30.06,30.01,29.96,10,10,8,8,5,,0.00,5,,335
2011-10-3,89,73,57,63,54,48,88,59,29,30.13,30.08,30.05,15,10,9,8,2,,0.00,3,,354
2011-10-4,87,76,64,63,58,54,88,61,31,30.18,30.12,30.07,15,10,8,12,6,16,0.00,4,,40
2011-10-5,86,74,62,64,60,55,94,65,37,30.14,30.10,30.06,15,10,9,15,5,22,0.00,3,Rain,37
2011-10-6,84,75,66,68,64,61,100,74,45,30.12,30.08,30.05,15,10,8,16,6,23,0.00,2,Rain,36
2011-10-7,84,76,68,72,66,63,100,82,51,30.14,30.10,30.07,15,10,8,20,5,25,0.00,2,Rain-Thunderstorm,41
2011-10-8,71,70,68,70,68,64,100,96,83,30.13,30.08,30.03,10,7,2,22,12,33,3.71,5,Rain,42
2011-10-9,75,70,66,73,69,66,100,85,73,30.03,29.92,29.83,9,4,1,18,9,24,5.23,7,Rain,35
2011-10-10,87,76,66,73,70,66,100,85,55,29.85,29.80,29.75,15,7,2,10,5,,0.00,5,Rain,231
2011-10-11,91,80,69,73,69,66,100,70,49,29.87,29.82,29.78,12,8,2,12,2,16,0.00,1,,234
2011-10-12,87,76,66,72,68,63,100,75,43,29.90,29.85,29.80,15,10,5,12,2,,0.00,2,,255
2011-10-13,84,76,69,79,71,70,100,89,62,29.87,29.81,29.74,12,9,1,12,1,,0.16,2,Rain,232
2011-10-14,87,76,64,72,62,57,100,68,35,30.02,29.90,29.82,15,9,0,9,1,,0.00,0,Fog,355
2011-10-15,82,73,64,70,62,55,100,75,47,30.09,30.03,29.99,10,9,3,15,3,20,0.00,1,,56
2011-10-16,86,77,68,66,64,59,94,69,45,30.12,30.06,30.01,10,8,2,16,6,22,0.00,0,,52
2011-10-17,82,76,69,73,69,66,100,83,58,30.04,29.95,29.88,12,10,3,12,3,,0.00,3,,89
2011-10-18,77,74,71,75,72,70,100,97,83,29.88,29.75,29.60,12,8,1,16,5,23,0.10,6,Rain,117
2011-10-19,82,73,64,75,60,52,100,68,53,29.88,29.67,29.54,12,8,5,20,11,25,0.00,5,Rain,239
2011-10-20,71,62,53,54,45,39,88,56,38,30.10,30.02,29.90,15,10,5,12,5,18,0.00,2,,328
2011-10-21,73,60,48,55,47,43,100,73,35,30.17,30.11,30.06,15,10,1,10,1,,0.00,0,,330
2011-10-22,77,62,48,52,48,43,100,68,38,30.10,30.06,29.98,10,10,3,13,3,18,0.00,2,,4
2011-10-23,82,70,57,55,53,52,82,59,35,30.06,30.02,29.98,10,10,6,9,5,,0.00,2,,17
2011-10-24,78,66,53,61,53,48,100,70,34,30.16,30.07,30.03,15,9,1,12,2,16,0.00,0,,2
2011-10-25,80,66,51,61,56,50,100,77,42,30.18,30.13,30.09,15,10,2,15,2,18,0.00,2,,57
2011-10-26,86,73,60,63,60,54,100,76,35,30.12,30.04,29.98,15,10,2,9,2,,0.00,1,Thunderstorm,61
2011-10-27,89,73,57,66,60,55,100,70,31,30.01,29.95,29.89,15,9,0,8,1,,0.00,0,Fog,268
2011-10-28,75,70,66,72,68,64,100,94,69,29.98,29.94,29.89,10,7,0,9,1,,0.09,2,Rain,50
2011-10-29,80,74,69,73,66,63,100,71,61,29.92,29.87,29.82,10,7,1,14,5,18,0.24,5,Rain,17
2011-10-30,75,66,57,59,55,52,88,68,53,30.10,30.06,30.01,10,9,5,18,11,22,0.00,4,,42
2011-10-31,78,71,64,70,65,61,100,87,54,30.09,30.02,29.97,10,8,1,20,9,29,1.10,6,Rain,22